Time;durP1;ratioP1;P1;durP2;ratioP2;P2;SDS_P1;SDS_P2;PMS_P1;PMS_P2;Temp;Humidity;BMP_temperature;BMP_pressure;BME280_temperature;BME280_humidity;BME280_pressure;Samples;Min_cycle;Max_cycle;Signal;HPM_P1;HPM_P2
2022/07/22 00:00:21;;;;;;;6.63;5.40;;;;;;;19.63;100.00;99459.94;5110761;28;20219;-80
2022/07/22 00:02:49;;;;;;;5.80;5.20;;;;;;;19.82;100.00;99459.84;5112800;28;20201;-80
2022/07/22 00:05:18;;;;;;;5.60;5.10;;;;;;;19.77;100.00;99455.91;5113554;28;20293;-81
2022/07/22 00:07:46;;;;;;;6.57;5.67;;;;;;;19.67;100.00;99462.16;5115097;27;20202;-82
2022/07/22 00:10:14;;;;;;;6.33;5.00;;;;;;;19.68;100.00;99454.94;5114055;28;20191;-80
2022/07/22 00:12:44;;;;;;;6.23;5.67;;;;;;;19.64;100.00;99449.03;5117923;27;20209;-81
2022/07/22 00:15:15;;;;;;;6.67;5.07;;;;;;;19.64;100.00;99459.78;5115632;27;20218;-81
2022/07/22 00:17:46;;;;;;;5.97;5.37;;;;;;;19.78;100.00;99458.44;5110814;28;20333;-81
2022/07/22 00:20:15;;;;;;;9.00;5.27;;;;;;;19.72;100.00;99459.88;5115017;28;20209;-81
2022/07/22 00:22:43;;;;;;;6.67;5.30;;;;;;;19.73;100.00;99464.28;5113258;28;20202;-80
2022/07/22 00:25:11;;;;;;;6.53;5.93;;;;;;;19.66;100.00;99460.47;5109485;28;20198;-81
2022/07/22 00:27:40;;;;;;;7.43;6.73;;;;;;;19.54;100.00;99456.25;5115052;28;20277;-81
2022/07/22 00:30:13;;;;;;;8.73;8.00;;;;;;;19.38;100.00;99462.25;5111632;28;20191;-81
2022/07/22 00:32:43;;;;;;;9.17;8.17;;;;;;;19.27;100.00;99459.75;5107966;28;20202;-81
2022/07/22 00:35:11;;;;;;;10.20;9.30;;;;;;;19.28;100.00;99464.13;5109546;28;20240;-81
2022/07/22 00:37:40;;;;;;;9.70;8.80;;;;;;;19.20;100.00;99461.31;5112875;28;20247;-81
2022/07/22 00:40:10;;;;;;;10.70;9.70;;;;;;;19.19;100.00;99462.31;5107942;28;20198;-81
2022/07/22 00:42:42;;;;;;;10.70;9.60;;;;;;;19.11;100.00;99460.38;5114660;28;20187;-81
2022/07/22 00:45:14;;;;;;;11.17;9.80;;;;;;;19.23;100.00;99463.72;5110811;28;20638;-81
2022/07/22 00:47:42;;;;;;;11.07;9.90;;;;;;;19.23;100.00;99462.88;5114378;27;20195;-81
2022/07/22 00:50:11;;;;;;;10.07;9.10;;;;;;;19.21;100.00;99470.25;5116119;27;20234;-81
2022/07/22 00:52:40;;;;;;;9.93;9.03;;;;;;;19.05;100.00;99469.00;5111718;28;20205;-81
2022/07/22 00:55:09;;;;;;;9.90;8.93;;;;;;;18.94;100.00;99461.13;5109484;28;20191;-81
2022/07/22 00:57:38;;;;;;;10.57;9.47;;;;;;;19.07;100.00;99460.78;5079639;28;20710;-81
2022/07/22 01:00:11;;;;;;;9.27;8.37;;;;;;;19.06;100.00;99464.47;5114351;28;20195;-81
2022/07/22 01:02:41;;;;;;;8.70;7.90;;;;;;;18.98;100.00;99456.28;5114763;28;20198;-81
2022/07/22 01:05:09;;;;;;;8.90;8.10;;;;;;;18.87;100.00;99454.63;5109964;28;20218;-80
2022/07/22 01:07:39;;;;;;;8.83;7.93;;;;;;;18.92;100.00;99448.84;5112251;28;20191;-81
2022/07/22 01:10:08;;;;;;;9.50;8.47;;;;;;;18.85;100.00;99456.59;5113033;28;20199;-81
2022/07/22 01:12:37;;;;;;;8.60;7.77;;;;;;;18.87;100.00;99460.81;5113972;28;20266;-81
2022/07/22 01:15:07;;;;;;;9.27;8.27;;;;;;;18.78;100.00;99459.00;5111414;28;20637;-81
2022/07/22 01:17:36;;;;;;;6.90;6.27;;;;;;;18.67;100.00;99453.78;5114043;28;20199;-80
2022/07/22 01:20:07;;;;;;;7.80;7.10;;;;;;;18.73;100.00;99452.38;5109287;28;20294;-80
2022/07/22 01:22:36;;;;;;;7.70;7.00;;;;;;;18.71;100.00;99457.03;5112357;28;20198;-80
2022/07/22 01:25:05;;;;;;;8.43;7.10;;;;;;;18.74;100.00;99464.81;5114074;27;20202;-81
2022/07/22 01:27:33;;;;;;;6.87;6.27;;;;;;;18.73;100.00;99463.13;5114244;28;20199;-81
2022/07/22 01:30:02;;;;;;;7.40;6.70;;;;;;;18.71;100.00;99459.72;5109172;28;20191;-81
2022/07/22 01:32:30;;;;;;;7.00;6.40;;;;;;;18.71;100.00;99459.72;5110974;28;20209;-81
2022/07/22 01:35:02;;;;;;;7.30;6.60;;;;;;;18.73;100.00;99455.91;5115352;27;20218;-81
2022/07/22 01:37:34;;;;;;;7.43;6.40;;;;;;;18.81;100.00;99461.38;5113565;28;20195;-81
2022/07/22 01:40:02;;;;;;;6.83;6.13;;;;;;;18.86;100.00;99459.13;5112649;28;20187;-81
2022/07/22 01:42:31;;;;;;;7.47;6.20;;;;;;;18.71;100.00;99448.97;5105700;28;20221;-81
2022/07/22 01:44:59;;;;;;;7.63;6.93;;;;;;;18.72;100.00;99442.63;5113198;27;20191;-81
2022/07/22 01:47:27;;;;;;;8.40;6.90;;;;;;;18.75;100.00;99445.03;5113700;28;20273;-81
2022/07/22 01:49:56;;;;;;;7.27;6.60;;;;;;;18.74;100.00;99446.88;5110820;28;20234;-81
2022/07/22 01:52:27;;;;;;;7.10;6.50;;;;;;;18.73;100.00;99437.13;5113525;28;20233;-81
2022/07/22 01:54:56;;;;;;;7.03;6.43;;;;;;;18.80;100.00;99432.84;5112150;28;20205;-81
2022/07/22 01:57:25;;;;;;;7.50;6.90;;;;;;;18.76;100.00;99444.88;5113369;28;20217;-81
2022/07/22 01:59:53;;;;;;;8.10;7.13;;;;;;;18.71;100.00;99443.59;5112254;28;20218;-81
2022/07/22 02:02:21;;;;;;;7.57;6.93;;;;;;;18.75;100.00;99447.72;5109681;28;20203;-81
2022/07/22 02:04:49;;;;;;;7.17;6.47;;;;;;;18.77;100.00;99443.91;5113225;28;20282;-81
2022/07/22 02:07:18;;;;;;;8.20;7.00;;;;;;;18.74;100.00;99448.72;5108387;28;20195;-81
2022/07/22 02:09:46;;;;;;;7.57;6.90;;;;;;;18.76;100.00;99458.31;5114867;27;20210;-81
2022/07/22 02:12:16;;;;;;;7.70;6.53;;;;;;;18.72;100.00;99447.97;5113571;28;20626;-81
2022/07/22 02:14:45;;;;;;;8.47;7.03;;;;;;;18.70;100.00;99453.50;5113250;28;20233;-81
2022/07/22 02:17:13;;;;;;;7.57;6.87;;;;;;;18.69;100.00;99449.13;5112854;28;20340;-81
2022/07/22 02:19:42;;;;;;;7.67;6.97;;;;;;;18.67;100.00;99447.59;5112302;28;20210;-81
2022/07/22 02:22:11;;;;;;;7.73;6.93;;;;;;;18.64;100.00;99450.53;5110607;28;20217;-81
2022/07/22 02:24:39;;;;;;;7.17;6.53;;;;;;;18.70;100.00;99440.06;5111799;28;20206;-81
2022/07/22 02:27:07;;;;;;;7.93;7.17;;;;;;;18.65;100.00;99437.00;5115854;27;20211;-81
2022/07/22 02:29:37;;;;;;;8.20;7.40;;;;;;;18.69;100.00;99435.72;5105172;28;20214;-81
2022/07/22 02:32:06;;;;;;;7.63;6.93;;;;;;;18.68;100.00;99442.06;5113632;28;20199;-81
2022/07/22 02:34:34;;;;;;;7.93;7.13;;;;;;;18.73;100.00;99441.66;5113802;28;20195;-81
2022/07/22 02:37:02;;;;;;;7.67;6.97;;;;;;;18.70;100.00;99436.56;5111820;28;20304;-81
2022/07/22 02:39:31;;;;;;;6.87;6.07;;;;;;;18.60;100.00;99431.16;5109020;28;20230;-81
2022/07/22 02:41:59;;;;;;;7.70;7.00;;;;;;;18.42;100.00;99439.06;5115467;28;20194;-81
2022/07/22 02:44:28;;;;;;;7.63;6.93;;;;;;;18.35;100.00;99437.13;5117072;28;20191;-81
2022/07/22 02:46:58;;;;;;;8.60;7.80;;;;;;;18.27;100.00;99432.44;5116833;27;20195;-81
2022/07/22 02:49:26;;;;;;;7.80;6.60;;;;;;;18.31;100.00;99434.69;5112735;28;20210;-81
2022/07/22 02:51:55;;;;;;;8.20;7.40;;;;;;;18.20;100.00;99431.31;5112216;28;20214;-81
2022/07/22 02:54:23;;;;;;;8.10;7.30;;;;;;;18.16;100.00;99437.94;5115908;28;20194;-81
2022/07/22 02:56:53;;;;;;;8.30;7.50;;;;;;;18.11;100.00;99434.81;5115442;28;20218;-81
2022/07/22 02:59:21;;;;;;;8.70;7.90;;;;;;;18.12;100.00;99434.69;5115308;28;20306;-81
2022/07/22 03:01:49;;;;;;;8.40;7.60;;;;;;;18.11;100.00;99438.34;5116838;28;20199;-81
2022/07/22 03:04:19;;;;;;;9.10;8.20;;;;;;;18.08;100.00;99441.31;5114886;28;20247;-81
2022/07/22 03:06:48;;;;;;;9.50;8.27;;;;;;;18.05;100.00;99441.59;5116744;28;20199;-81
2022/07/22 03:09:19;;;;;;;9.67;7.80;;;;;;;17.97;100.00;99444.97;5110581;28;20198;-81
2022/07/22 03:11:47;;;;;;;8.90;7.90;;;;;;;17.88;100.00;99445.78;5113417;28;20191;-81
2022/07/22 03:14:16;;;;;;;8.17;7.37;;;;;;;17.83;100.00;99456.06;5113618;28;20203;-80
2022/07/22 03:16:44;;;;;;;8.67;7.87;;;;;;;17.92;100.00;99462.44;5115475;28;20206;-81
2022/07/22 03:19:13;;;;;;;8.37;7.57;;;;;;;17.89;100.00;99465.41;5110172;28;20242;-81
2022/07/22 03:21:43;;;;;;;8.17;7.47;;;;;;;17.57;100.00;99470.91;5113908;28;20195;-81
2022/07/22 03:24:11;;;;;;;8.77;7.87;;;;;;;17.61;100.00;99473.19;5110608;28;20206;-81
2022/07/22 03:26:39;;;;;;;8.87;7.90;;;;;;;17.70;100.00;99480.44;5108887;28;20271;-81
2022/07/22 03:29:08;;;;;;;8.70;7.90;;;;;;;17.69;100.00;99472.50;5115938;28;20203;-81
2022/07/22 03:31:36;;;;;;;8.13;7.43;;;;;;;17.68;100.00;99479.69;5117911;27;20214;-81
2022/07/22 03:34:05;;;;;;;8.37;7.67;;;;;;;17.80;100.00;99472.44;5116244;28;20210;-81
2022/07/22 03:36:33;;;;;;;8.80;7.90;;;;;;;17.71;100.00;99476.78;5113906;28;20187;-81
2022/07/22 03:39:04;;;;;;;8.67;7.77;;;;;;;17.38;100.00;99485.06;5114622;27;20214;-80
2022/07/22 03:41:32;;;;;;;9.13;8.23;;;;;;;17.50;100.00;99488.50;5115910;28;20199;-81
2022/07/22 03:44:00;;;;;;;9.20;8.33;;;;;;;17.41;100.00;99487.47;5112753;28;20198;-81
2022/07/22 03:46:28;;;;;;;8.90;8.10;;;;;;;17.55;100.00;99486.25;5114587;27;20199;-81
2022/07/22 03:48:56;;;;;;;8.67;7.83;;;;;;;17.34;100.00;99483.63;5115408;27;20195;-81
2022/07/22 03:51:26;;;;;;;8.73;7.83;;;;;;;17.54;100.00;99490.75;5111072;28;20235;-81
2022/07/22 03:54:04;;;;;;;11.00;8.40;;;;;;;17.59;100.00;99485.00;5114458;28;20190;-81
2022/07/22 03:56:34;;;;;;;8.40;7.50;;;;;;;17.55;100.00;99480.88;5113404;28;20183;-81
2022/07/22 03:59:03;;;;;;;8.57;7.77;;;;;;;17.55;100.00;99481.75;5111915;28;20275;-81
2022/07/22 04:01:31;;;;;;;8.70;7.37;;;;;;;17.62;100.00;99477.53;5070048;28;20288;-81
2022/07/22 04:03:59;;;;;;;8.27;7.47;;;;;;;17.67;100.00;99483.38;5072937;28;20266;-81
2022/07/22 04:06:32;;;;;;;8.07;7.37;;;;;;;17.78;100.00;99484.28;5073124;28;20292;-81
2022/07/22 04:09:00;;;;;;;8.43;7.43;;;;;;;17.67;100.00;99478.00;5074079;28;20200;-81
2022/07/22 04:11:29;;;;;;;9.67;7.23;;;;;;;17.43;100.00;99482.81;5074919;28;20203;-81
2022/07/22 04:14:00;;;;;;;7.60;6.77;;;;;;;17.46;100.00;99490.56;5072712;28;20211;-81
2022/07/22 04:16:28;;;;;;;8.03;6.90;;;;;;;17.58;100.00;99496.72;5064978;28;20212;-81
2022/07/22 04:18:56;;;;;;;8.63;7.83;;;;;;;17.81;100.00;99492.88;5068175;28;20204;-81
2022/07/22 04:21:25;;;;;;;9.00;8.10;;;;;;;17.90;100.00;99483.19;5069989;28;20220;-81
2022/07/22 04:23:54;;;;;;;8.37;7.10;;;;;;;17.87;100.00;99484.31;5065941;28;20198;-79
2022/07/22 04:26:29;;;;;;;8.47;7.33;;;;;;;17.65;100.00;99484.47;5099099;28;20277;-81
2022/07/22 04:28:57;;;;;;;8.60;7.43;;;;;;;17.59;100.00;99491.22;5112866;28;20198;-80
2022/07/22 04:31:28;;;;;;;8.23;7.43;;;;;;;17.64;100.00;99493.47;5113623;28;20202;-81
2022/07/22 04:33:56;;;;;;;8.23;6.93;;;;;;;17.69;100.00;99499.28;5112990;28;20195;-81
2022/07/22 04:36:24;;;;;;;7.30;6.60;;;;;;;17.75;100.00;99501.44;5117322;27;20660;-81
2022/07/22 04:38:53;;;;;;;7.23;6.53;;;;;;;17.61;100.00;99499.13;5111343;28;20225;-81
2022/07/22 04:41:22;;;;;;;8.10;7.30;;;;;;;17.72;100.00;99491.00;5113969;27;20222;-80
2022/07/22 04:43:50;;;;;;;8.70;6.57;;;;;;;17.85;100.00;99498.81;5112786;28;20184;-80
2022/07/22 04:46:18;;;;;;;8.90;7.13;;;;;;;17.83;100.00;99495.41;5114827;28;20203;-81
2022/07/22 04:48:48;;;;;;;9.00;7.20;;;;;;;17.93;100.00;99489.09;5113634;28;20194;-81
2022/07/22 04:51:16;;;;;;;7.67;6.63;;;;;;;17.98;100.00;99480.66;5114570;28;20219;-80
2022/07/22 04:53:44;;;;;;;7.50;6.80;;;;;;;18.02;100.00;99482.91;5112948;28;20274;-80
2022/07/22 04:56:16;;;;;;;8.00;6.73;;;;;;;18.03;100.00;99478.41;5112016;28;20199;-81
2022/07/22 04:58:46;;;;;;;7.43;6.50;;;;;;;18.10;100.00;99479.56;5112501;28;20183;-81
2022/07/22 05:01:14;;;;;;;8.23;6.93;;;;;;;18.28;100.00;99482.41;5116630;27;20218;-81
2022/07/22 05:03:43;;;;;;;7.17;6.47;;;;;;;18.24;100.00;99478.31;5111538;28;20226;-81
2022/07/22 05:06:13;;;;;;;7.03;6.40;;;;;;;18.21;100.00;99474.06;5108134;28;20258;-80
2022/07/22 05:08:41;;;;;;;7.43;6.73;;;;;;;18.36;100.00;99471.00;5112068;28;20260;-81
2022/07/22 05:11:10;;;;;;;7.80;6.63;;;;;;;18.24;100.00;99470.28;5109596;28;20199;-81
2022/07/22 05:13:38;;;;;;;8.67;7.13;;;;;;;18.21;100.00;99478.59;5114597;28;20207;-80
2022/07/22 05:16:07;;;;;;;9.57;8.17;;;;;;;18.23;100.00;99471.25;5114578;27;20195;-81
2022/07/22 05:18:36;;;;;;;9.13;7.80;;;;;;;18.32;100.00;99481.13;5113063;27;20198;-81
2022/07/22 05:21:05;;;;;;;9.70;8.07;;;;;;;18.13;100.00;99473.91;5111884;28;20215;-80
2022/07/22 05:23:35;;;;;;;9.17;8.20;;;;;;;18.06;100.00;99480.81;5112770;28;20207;-80
2022/07/22 05:26:05;;;;;;;8.80;7.90;;;;;;;18.12;100.00;99472.22;5113906;28;20269;-81
2022/07/22 05:28:33;;;;;;;8.70;7.83;;;;;;;18.21;100.00;99478.59;5113716;28;20234;-81
2022/07/22 05:31:02;;;;;;;8.87;7.97;;;;;;;18.29;100.00;99474.22;5113820;28;20202;-80
2022/07/22 05:33:30;;;;;;;9.00;7.73;;;;;;;18.34;100.00;99472.97;5114001;28;20183;-81
2022/07/22 05:35:59;;;;;;;8.70;7.60;;;;;;;18.30;100.00;99475.06;5109199;28;20198;-81
2022/07/22 05:38:27;;;;;;;9.33;8.40;;;;;;;18.32;100.00;99481.13;5107802;28;20633;-82
2022/07/22 05:40:57;;;;;;;9.63;7.80;;;;;;;18.47;100.00;99473.53;5111008;28;20219;-81
2022/07/22 05:43:26;;;;;;;8.50;7.70;;;;;;;18.47;100.00;99473.53;5105352;28;20213;-81
2022/07/22 05:45:54;;;;;;;10.40;8.20;;;;;;;18.72;100.00;99472.13;5111912;28;20199;-81
2022/07/22 05:48:22;;;;;;;8.43;7.70;;;;;;;18.83;100.00;99462.13;5113531;28;20201;-81
2022/07/22 05:50:51;;;;;;;7.90;7.10;;;;;;;18.91;100.00;99457.84;5110487;28;20230;-81
2022/07/22 05:53:19;;;;;;;7.77;7.07;;;;;;;19.03;100.00;99454.03;5112745;28;20191;-82
2022/07/22 05:55:47;;;;;;;8.13;7.10;;;;;;;19.15;100.00;99455.53;5112421;28;20211;-81
2022/07/22 05:58:17;;;;;;;6.90;6.20;;;;;;;19.07;100.00;99445.53;5111292;28;20190;-81
2022/07/22 06:00:45;;;;;;;6.43;5.83;;;;;;;19.11;100.00;99452.31;5113740;28;20215;-81
2022/07/22 06:03:14;;;;;;;5.90;4.53;;;;;;;19.30;100.00;99446.03;5113858;28;20198;-81
2022/07/22 06:05:46;;;;;;;5.30;4.80;;;;;;;19.49;100.00;99445.09;5113022;28;20194;-80
2022/07/22 06:08:14;;;;;;;4.97;4.00;;;;;;;19.50;100.00;99444.13;5114318;28;20187;-80
2022/07/22 06:10:43;;;;;;;4.13;3.77;;;;;;;19.61;100.00;99441.28;5109946;28;20199;-81
2022/07/22 06:13:11;;;;;;;4.03;3.63;;;;;;;19.74;100.00;99446.28;5116147;28;20199;-81
2022/07/22 06:15:41;;;;;;;5.47;3.83;;;;;;;19.57;100.00;99436.34;5082424;28;20187;-80
2022/07/22 06:18:10;;;;;;;3.90;3.50;;;;;;;19.70;100.00;99442.22;5117235;28;20195;-81
2022/07/22 06:20:38;;;;;;;3.37;3.07;;;;;;;19.78;100.00;99449.53;5114732;28;20218;-80
2022/07/22 06:23:06;;;;;;;3.70;3.20;;;;;;;19.90;100.00;99440.28;5118902;27;20284;-80
2022/07/22 06:25:35;;;;;;;3.43;3.13;;;;;;;19.94;100.00;99437.13;5112423;28;20205;-80
2022/07/22 06:28:10;;;;;;;3.47;3.17;;;;;;;20.13;100.00;99440.69;5117217;28;20661;-80
2022/07/22 06:30:40;;;;;;;5.57;3.63;;;;;;;19.82;100.00;99438.34;5117521;28;20206;-80
2022/07/22 06:33:09;;;;;;;4.03;3.50;;;;;;;19.98;100.00;99445.75;5117242;28;20195;-80
2022/07/22 06:35:40;;;;;;;3.50;3.20;;;;;;;19.84;100.00;99446.25;5117477;28;20191;-80
2022/07/22 06:38:09;;;;;;;4.10;3.20;;;;;;;19.92;100.00;99449.03;5112980;28;20210;-80
2022/07/22 06:40:56;;;;;;;6.00;3.30;;;;;;;20.21;100.00;99456.91;5117269;28;20225;-80
2022/07/22 06:43:24;;;;;;;3.67;3.37;;;;;;;20.01;100.00;99453.50;5113242;28;20226;-80
2022/07/22 06:45:54;;;;;;;4.40;3.33;;;;;;;20.12;100.00;99453.28;5114317;28;20195;-80
2022/07/22 06:48:24;;;;;;;3.70;3.40;;;;;;;20.22;100.00;99451.38;5112274;28;20274;-80
2022/07/22 06:50:53;;;;;;;3.50;3.20;;;;;;;20.22;100.00;99443.31;5118107;27;20227;-80
2022/07/22 06:53:21;;;;;;;3.83;3.37;;;;;;;20.42;100.00;99438.63;5116255;27;20195;-80
2022/07/22 06:55:49;;;;;;;3.90;3.30;;;;;;;20.50;100.00;99438.72;5117087;28;20226;-79
2022/07/22 06:58:17;;;;;;;3.70;3.07;;;;;;;20.58;100.00;99433.44;5050954;28;20201;-79
2022/07/22 07:00:46;;;;;;;4.43;3.50;;;;;;;20.60;100.00;99437.81;5051408;28;20193;-79
2022/07/22 07:03:15;;;;;;;3.70;3.00;;;;;;;20.58;100.00;99433.44;5054218;28;20189;-80
2022/07/22 07:06:02;;;;;;;4.82;3.67;;;;;;;20.70;100.00;99433.19;5054112;28;20197;-80
2022/07/22 07:08:31;;;;;;;4.97;3.67;;;;;;;20.73;100.00;99424.78;5050757;28;20276;-80
2022/07/22 07:10:59;;;;;;;3.70;3.40;;;;;;;20.72;100.00;99418.53;5046742;28;20200;-81
2022/07/22 07:13:29;;;;;;;4.50;3.30;;;;;;;20.66;100.00;99419.19;5049715;28;20648;-80
2022/07/22 07:15:57;;;;;;;4.03;3.57;;;;;;;20.76;100.00;99409.19;5070511;28;20223;-80
2022/07/22 07:18:27;;;;;;;5.43;3.60;;;;;;;20.73;100.00;99414.84;5115601;28;20203;-80
2022/07/22 07:20:56;;;;;;;3.60;3.30;;;;;;;20.86;100.00;99422.53;5116874;28;20191;-80
2022/07/22 07:23:24;;;;;;;4.13;3.37;;;;;;;21.07;100.00;99411.41;5115825;28;20215;-81
2022/07/22 07:25:54;;;;;;;3.30;3.00;;;;;;;21.38;100.00;99419.84;5116056;28;20689;-80
2022/07/22 07:28:22;;;;;;;3.50;3.20;;;;;;;21.30;100.00;99412.56;5115134;28;20183;-80
2022/07/22 07:30:51;;;;;;;3.10;2.90;;;;;;;21.38;100.00;99412.59;5116096;27;20646;-80
2022/07/22 07:33:20;;;;;;;4.10;3.10;;;;;;;21.64;100.00;99419.81;5116305;28;20601;-80
2022/07/22 07:35:50;;;;;;;3.17;2.88;;;;;;;21.81;100.00;99408.06;5115427;27;20206;-79
2022/07/22 07:38:18;;;;;;;3.10;2.80;;;;;;;21.92;100.00;99396.97;5115128;28;20203;-81
2022/07/22 07:40:48;;;;;;;3.42;3.13;;;;;;;21.89;100.00;99401.84;5116427;28;20634;-80
2022/07/22 07:43:17;;;;;;;3.13;2.85;;;;;;;21.68;100.00;99403.13;5116246;28;20654;-80
2022/07/22 07:45:45;;;;;;;3.08;2.88;;;;;;;21.67;100.00;99408.69;5115946;28;20710;-81
2022/07/22 07:48:13;;;;;;;3.75;3.45;;;;;;;21.61;100.00;99401.25;5118466;27;20221;-81
2022/07/22 07:50:42;;;;;;;4.53;3.08;;;;;;;21.50;100.00;99405.06;5117824;27;20234;-80
2022/07/22 07:53:14;;;;;;;3.25;2.90;;;;;;;21.95;100.00;99387.72;5114367;28;20194;-80
2022/07/22 07:55:47;;;;;;;3.40;3.05;;;;;;;21.78;100.00;99384.13;5117992;27;20202;-80
2022/07/22 07:58:15;;;;;;;2.90;2.70;;;;;;;21.30;100.00;99382.06;5113458;28;20191;-80
2022/07/22 08:00:43;;;;;;;3.38;3.15;;;;;;;21.77;100.00;99379.72;5113424;28;20343;-80
2022/07/22 08:03:13;;;;;;;4.13;3.40;;;;;;;21.82;100.00;99380.09;5110752;28;20298;-81
2022/07/22 08:05:42;;;;;;;3.40;3.10;;;;;;;21.71;100.00;99380.38;5116614;27;20199;-80
2022/07/22 08:08:13;;;;;;;3.35;3.05;;;;;;;21.70;100.00;99386.78;5107103;28;20257;-80
2022/07/22 08:10:42;;;;;;;3.30;3.00;;;;;;;21.98;100.00;99384.66;5115582;27;20195;-80
2022/07/22 08:13:28;;;;;;;3.63;2.90;;;;;;;22.10;100.00;99382.53;5115443;28;20191;-80
2022/07/22 08:15:57;;;;;;;6.53;3.47;;;;;;;22.05;100.00;99383.00;5115289;28;20191;-80
2022/07/22 08:18:28;;;;;;;2.92;2.70;;;;;;;22.19;100.00;99381.53;5112919;28;20282;-80
2022/07/22 08:20:57;;;;;;;4.68;3.28;;;;;;;22.14;100.00;99373.09;5114947;28;20191;-80
2022/07/22 08:23:29;;;;;;;3.42;3.13;;;;;;;22.14;100.00;99386.59;5112808;28;20229;-80
2022/07/22 08:25:58;;;;;;;4.18;3.05;;;;;;;22.22;100.00;99383.91;5114916;28;20221;-80
2022/07/22 08:28:27;;;;;;;3.95;3.33;;;;;;;22.10;100.00;99377.13;5114865;28;20223;-80
2022/07/22 08:30:55;;;;;;;3.15;2.85;;;;;;;22.45;100.00;99379.53;5113896;28;20195;-79
2022/07/22 08:33:24;;;;;;;3.67;2.97;;;;;;;22.70;100.00;99369.56;5115214;28;20194;-80
2022/07/22 08:35:52;;;;;;;3.05;2.83;;;;;;;22.47;100.00;99379.34;5114607;28;20282;-79
2022/07/22 08:38:20;;;;;;;3.60;3.30;;;;;;;22.63;100.00;99376.66;5113749;28;20195;-79
2022/07/22 08:40:50;;;;;;;3.30;3.00;;;;;;;22.75;100.00;99367.19;5117143;27;20199;-79
2022/07/22 08:43:18;;;;;;;3.30;3.00;;;;;;;22.47;100.00;99369.38;5109886;28;20665;-79
2022/07/22 08:45:48;;;;;;;5.18;3.25;;;;;;;22.08;100.00;99369.19;5031815;28;20193;-79
2022/07/22 08:48:16;;;;;;;4.68;3.10;;;;;;;22.39;100.00;99369.41;5028669;28;20221;-80
2022/07/22 08:50:46;;;;;;;3.60;2.88;;;;;;;22.62;100.00;99371.44;5029869;28;20236;-79
2022/07/22 08:53:15;;;;;;;3.60;3.30;;;;;;;22.42;100.00;99366.38;4993067;28;20217;-79
2022/07/22 08:55:44;;;;;;;3.60;3.30;;;;;;;22.23;100.00;99359.44;5024409;28;20201;-79
2022/07/22 08:58:17;;;;;;;3.38;3.08;;;;;;;22.22;100.00;99359.63;5031716;28;20212;-79
2022/07/22 09:00:45;;;;;;;4.15;3.20;;;;;;;22.26;100.00;99364.50;5031562;28;20244;-79
2022/07/22 09:03:22;;;;;;;3.67;3.38;;;;;;;22.28;100.00;99353.53;5045901;28;20250;-79
2022/07/22 09:05:51;;;;;;;4.00;3.58;;;;;;;22.32;100.00;99348.66;5113839;28;20186;-80
2022/07/22 09:08:20;;;;;;;3.53;3.22;;;;;;;23.03;100.00;99356.84;5107582;28;20196;-79
2022/07/22 09:10:49;;;;;;;5.22;3.38;;;;;;;23.16;100.00;99355.47;5113069;28;20641;-79
2022/07/22 09:13:23;;;;;;;3.38;3.17;;;;;;;23.18;100.00;99350.75;5116501;27;20210;-79
2022/07/22 09:15:54;;;;;;;3.72;3.40;;;;;;;22.99;100.00;99354.69;5116499;27;20195;-79
2022/07/22 09:18:23;;;;;;;3.63;3.08;;;;;;;22.83;100.00;99352.81;5109223;28;20641;-79
2022/07/22 09:21:00;;;;;;;3.05;2.85;;;;;;;23.35;100.00;99355.91;5112374;28;20195;-79
2022/07/22 09:23:40;;;;;;;4.75;3.35;;;;;;;23.52;100.00;99355.84;5112509;28;20234;-79
2022/07/22 09:26:08;;;;;;;3.45;3.15;;;;;;;23.68;100.00;99359.34;5111784;28;20195;-79
2022/07/22 09:28:39;;;;;;;3.78;3.47;;;;;;;23.82;100.00;99356.88;5116172;27;20202;-79
2022/07/22 09:31:08;;;;;;;3.30;3.00;;;;;;;23.98;100.00;99357.63;5113607;28;20195;-79
2022/07/22 09:33:37;;;;;;;3.40;3.10;;;;;;;24.08;100.00;99357.41;5113592;28;20263;-79
2022/07/22 09:36:07;;;;;;;3.50;3.20;;;;;;;24.40;100.00;99353.63;5109440;28;20195;-79
2022/07/22 09:38:35;;;;;;;5.43;3.33;;;;;;;23.88;100.00;99362.44;5105985;28;20263;-79
2022/07/22 09:41:05;;;;;;;4.60;3.50;;;;;;;24.11;100.00;99358.91;5113263;28;20237;-79
2022/07/22 09:43:36;;;;;;;4.25;3.10;;;;;;;24.25;100.00;99356.25;5113462;28;20234;-79
2022/07/22 09:46:08;;;;;;;3.53;3.22;;;;;;;24.33;100.00;99357.25;5113629;28;20282;-79
2022/07/22 09:48:37;;;;;;;3.63;3.30;;;;;;;24.07;100.00;99354.88;5109554;28;20586;-79
2022/07/22 09:51:06;;;;;;;3.97;3.20;;;;;;;24.55;100.00;99350.97;5111393;28;20749;-80
2022/07/22 09:53:36;;;;;;;5.15;3.20;;;;;;;24.70;100.00;99354.53;5112652;28;20634;-80
2022/07/22 09:56:06;;;;;;;5.40;3.10;;;;;;;25.11;100.00;99354.16;5111269;28;20183;-80
2022/07/22 09:58:35;;;;;;;3.75;3.28;;;;;;;24.93;100.00;99348.22;5113621;28;20197;-80
2022/07/22 10:01:07;;;;;;;3.60;3.00;;;;;;;25.03;100.00;99337.97;5105524;28;20206;-80
2022/07/22 10:03:40;;;;;;;3.40;3.10;;;;;;;24.59;100.00;99338.72;5114412;27;20211;-80
2022/07/22 10:06:09;;;;;;;3.67;3.10;;;;;;;24.33;100.00;99336.44;5109179;28;20244;-81
2022/07/22 10:08:39;;;;;;;5.40;3.10;;;;;;;24.72;100.00;99333.53;5104199;28;20205;-80
2022/07/22 10:11:08;;;;;;;3.42;3.13;;;;;;;24.26;100.00;99327.31;5113347;28;20202;-80
2022/07/22 10:13:40;;;;;;;4.30;3.28;;;;;;;24.21;100.00;99327.00;5108190;28;20200;-80
2022/07/22 10:16:12;;;;;;;5.90;2.83;;;;;;;25.00;100.00;99328.34;5113045;28;20197;-78
2022/07/22 10:18:46;;;;;;;3.60;3.30;;;;;;;25.31;100.00;99321.91;5106603;28;20206;-81
2022/07/22 10:21:14;;;;;;;4.45;3.45;;;;;;;25.54;98.03;99317.16;5110444;28;20209;-79
2022/07/22 10:24:07;;;;;;;3.95;3.03;;;;;;;25.77;95.55;99316.19;5107581;28;20210;-79
2022/07/22 10:26:48;;;;;;;3.35;3.05;;;;;;;25.75;94.93;99315.53;5113002;28;20215;-79
2022/07/22 10:29:27;;;;;;;4.95;3.65;;;;;;;25.81;93.24;99315.63;5113088;28;20187;-79
2022/07/22 10:32:34;;;;;;;3.67;3.35;;;;;;;26.39;89.88;99305.56;5111786;28;20195;-79
2022/07/22 10:35:21;;;;;;;3.13;2.92;;;;;;;26.61;87.75;99303.63;5110197;28;20194;-79
2022/07/22 10:37:53;;;;;;;3.60;3.30;;;;;;;27.01;86.28;99301.19;5114408;27;20319;-79
2022/07/22 10:40:24;;;;;;;3.35;3.05;;;;;;;27.07;85.32;99303.13;5111776;28;20202;-80
2022/07/22 10:43:14;;;;;;;3.35;3.05;;;;;;;27.67;80.99;99301.53;5112993;28;20199;-80
2022/07/22 10:45:49;;;;;;;3.40;3.10;;;;;;;27.45;80.11;99302.69;5113191;28;20274;-79
2022/07/22 10:48:22;;;;;;;3.85;3.45;;;;;;;26.56;86.44;99291.69;5112493;28;20202;-80
2022/07/22 10:50:54;;;;;;;3.85;3.40;;;;;;;27.13;84.06;99286.03;5112903;28;20250;-80
2022/07/22 10:53:26;;;;;;;4.20;3.35;;;;;;;27.33;84.10;99286.94;5078022;28;20203;-80
2022/07/22 10:56:23;;;;;;;3.38;3.08;;;;;;;27.95;79.22;99287.78;5116796;28;20193;-80
2022/07/22 10:59:10;;;;;;;3.85;3.47;;;;;;;28.42;75.50;99280.50;5096875;28;20290;-79
2022/07/22 11:01:43;;;;;;;3.55;3.25;;;;;;;28.66;71.58;99285.31;5119108;27;20210;-80
2022/07/22 11:04:17;;;;;;;3.80;3.50;;;;;;;28.18;75.09;99292.81;5116461;28;20210;-80
2022/07/22 11:06:47;;;;;;;3.60;3.05;;;;;;;26.85;82.84;99287.94;5115380;28;20236;-80
2022/07/22 11:09:18;;;;;;;3.78;3.22;;;;;;;28.24;77.94;99281.94;5114840;27;20207;-80
2022/07/22 11:11:49;;;;;;;3.58;3.17;;;;;;;28.34;74.62;99278.81;5116239;28;20246;-80
2022/07/22 11:14:21;;;;;;;4.40;3.60;;;;;;;28.54;72.97;99280.69;5111617;28;20210;-80
2022/07/22 11:16:51;;;;;;;5.53;3.70;;;;;;;28.75;70.80;99275.00;5116523;28;20249;-80
2022/07/22 11:19:26;;;;;;;3.60;3.30;;;;;;;29.16;68.28;99273.91;5116398;27;20227;-80
2022/07/22 11:21:58;;;;;;;3.83;3.30;;;;;;;29.14;68.43;99279.53;5114162;28;20209;-80
2022/07/22 11:24:27;;;;;;;3.67;3.13;;;;;;;28.35;72.19;99272.31;5117347;27;20225;-80
2022/07/22 11:26:56;;;;;;;4.00;3.70;;;;;;;28.57;72.87;99266.63;5116101;28;20199;-80
2022/07/22 11:29:34;;;;;;;4.10;3.58;;;;;;;27.98;75.35;99254.66;5115811;28;20190;-80
2022/07/22 11:32:06;;;;;;;4.80;3.58;;;;;;;27.01;82.28;99249.50;5114083;28;20282;-79
2022/07/22 11:34:42;;;;;;;3.97;3.67;;;;;;;27.71;78.35;99255.69;5111440;28;20202;-79
2022/07/22 11:37:10;;;;;;;3.97;3.60;;;;;;;28.77;74.96;99256.56;5115716;27;20274;-80
2022/07/22 11:39:39;;;;;;;5.90;3.40;;;;;;;28.66;74.11;99249.88;5114935;28;20270;-80